Time;durP1;ratioP1;P1;durP2;ratioP2;P2;SDS_P1;SDS_P2;PMS_P1;PMS_P2;Temp;Humidity;BMP_temperature;BMP_pressure;BME280_temperature;BME280_humidity;BME280_pressure;Samples;Min_cycle;Max_cycle;Signal;HPM_P1;HPM_P2
2022/08/07 00:01:41;;;;;;;2.83;2.63;;;24.50;82.90;;;;;;4993422;28;20537;-55
2022/08/07 00:04:07;;;;;;;3.05;2.75;;;24.40;83.00;;;;;;4993276;28;20022;-55
2022/08/07 00:06:32;;;;;;;2.50;2.30;;;24.40;83.00;;;;;;4991989;28;20037;-53
2022/08/07 00:08:58;;;;;;;2.70;2.50;;;24.40;83.00;;;;;;4992935;28;20026;-54
2022/08/07 00:11:24;;;;;;;2.33;2.13;;;24.40;83.10;;;;;;4993492;28;20088;-55
2022/08/07 00:13:49;;;;;;;3.25;2.58;;;24.40;83.00;;;;;;4992019;28;20050;-54
2022/08/07 00:16:15;;;;;;;2.70;2.50;;;24.40;83.00;;;;;;4993400;28;20393;-55
2022/08/07 00:18:41;;;;;;;2.80;2.60;;;24.40;83.00;;;;;;4993020;28;20022;-54
2022/08/07 00:21:09;;;;;;;2.35;2.15;;;24.30;83.00;;;;;;4993257;28;20065;-55
2022/08/07 00:23:38;;;;;;;2.40;2.20;;;24.30;83.00;;;;;;4988816;28;20014;-54
2022/08/07 00:26:06;;;;;;;2.42;2.22;;;24.30;83.00;;;;;;4993246;28;20031;-54
2022/08/07 00:28:33;;;;;;;3.05;2.55;;;24.30;82.90;;;;;;4992061;28;20030;-54
2022/08/07 00:31:00;;;;;;;3.05;2.72;;;24.30;82.90;;;;;;4993287;28;20490;-55
2022/08/07 00:33:27;;;;;;;2.65;2.38;;;24.30;82.80;;;;;;4992758;28;20362;-54
2022/08/07 00:35:56;;;;;;;2.53;2.33;;;24.30;82.80;;;;;;4992707;28;20117;-55
2022/08/07 00:38:22;;;;;;;3.60;2.88;;;24.20;82.60;;;;;;4989340;28;20037;-54
2022/08/07 00:40:48;;;;;;;2.53;2.33;;;24.20;82.50;;;;;;4993387;28;20367;-55
2022/08/07 00:43:15;;;;;;;2.55;2.35;;;24.20;82.50;;;;;;4992401;28;20453;-54
2022/08/07 00:45:41;;;;;;;2.40;2.20;;;24.20;82.70;;;;;;4998941;28;20065;-55
2022/08/07 00:48:08;;;;;;;2.45;2.25;;;24.20;82.30;;;;;;4992646;28;20097;-55
2022/08/07 00:50:34;;;;;;;2.25;2.15;;;24.20;82.30;;;;;;4992769;28;20022;-54
2022/08/07 00:53:00;;;;;;;2.33;2.13;;;24.20;82.30;;;;;;4990074;28;20026;-54
2022/08/07 00:55:26;;;;;;;2.83;2.53;;;24.20;82.20;;;;;;4989882;28;20042;-55
2022/08/07 00:57:52;;;;;;;3.17;2.65;;;24.20;82.00;;;;;;4992566;28;20109;-55
2022/08/07 01:00:18;;;;;;;2.50;2.30;;;24.20;81.90;;;;;;4992228;28;20080;-55
2022/08/07 01:02:45;;;;;;;2.75;2.55;;;24.20;81.90;;;;;;4992914;28;20033;-55
2022/08/07 01:05:11;;;;;;;3.47;2.67;;;24.20;81.80;;;;;;4991499;28;20122;-55
2022/08/07 01:07:38;;;;;;;3.00;2.80;;;24.10;81.80;;;;;;4990819;28;20093;-55
2022/08/07 01:10:05;;;;;;;2.90;2.67;;;24.10;82.50;;;;;;4985104;28;20022;-54
2022/08/07 01:12:31;;;;;;;2.45;2.25;;;24.10;81.80;;;;;;4992628;28;20035;-54
2022/08/07 01:14:58;;;;;;;3.13;2.70;;;24.10;81.90;;;;;;4992520;28;20070;-54
2022/08/07 01:17:25;;;;;;;2.85;2.65;;;24.10;81.90;;;;;;4991920;28;20544;-54
2022/08/07 01:19:52;;;;;;;2.92;2.40;;;24.10;81.90;;;;;;4992482;28;20046;-54
2022/08/07 01:22:19;;;;;;;2.65;2.45;;;24.10;81.80;;;;;;4992246;28;20058;-55
2022/08/07 01:24:45;;;;;;;2.80;2.40;;;24.10;81.80;;;;;;4992685;28;20080;-54
2022/08/07 01:27:11;;;;;;;2.63;2.42;;;24.10;82.00;;;;;;4992623;28;20029;-55
2022/08/07 01:29:37;;;;;;;2.20;2.10;;;24.10;81.80;;;;;;4992666;28;20482;-54
2022/08/07 01:32:04;;;;;;;2.20;2.10;;;24.10;81.70;;;;;;4996665;28;20030;-55
2022/08/07 01:34:31;;;;;;;2.50;2.30;;;24.10;81.70;;;;;;4991450;28;20038;-55
2022/08/07 01:36:57;;;;;;;2.80;2.60;;;24.10;81.70;;;;;;4996407;28;20035;-55
2022/08/07 01:39:27;;;;;;;2.60;2.40;;;24.00;81.80;;;;;;4995667;28;20018;-55
2022/08/07 01:41:53;;;;;;;2.80;2.50;;;24.00;81.80;;;;;;4996331;28;20030;-55
2022/08/07 01:44:19;;;;;;;2.10;2.00;;;24.00;81.90;;;;;;5000701;28;20200;-55
2022/08/07 01:46:45;;;;;;;2.10;2.00;;;24.00;81.90;;;;;;5001174;28;20484;-55
2022/08/07 01:49:11;;;;;;;2.25;2.10;;;24.00;81.90;;;;;;4996114;28;20035;-54
2022/08/07 01:51:40;;;;;;;2.35;2.15;;;23.90;82.00;;;;;;4984863;28;20467;-54
2022/08/07 01:54:08;;;;;;;2.35;2.15;;;23.90;82.10;;;;;;4995765;28;20482;-54
2022/08/07 01:56:47;;;;;;;2.47;2.28;;;23.90;82.20;;;;;;4995137;28;20092;-54
2022/08/07 01:59:18;;;;;;;2.40;2.20;;;23.80;82.10;;;;;;4996117;28;20140;-54
2022/08/07 02:01:47;;;;;;;;;;;23.70;82.30;;;;;;4982172;28;20021;-55
2022/08/07 02:04:18;;;;;;;2.90;2.25;;;23.70;82.40;;;;;;4986890;28;19967;-54
2022/08/07 02:06:44;;;;;;;2.63;2.42;;;23.60;82.60;;;;;;4994789;28;20089;-54
2022/08/07 02:09:15;;;;;;;2.60;2.40;;;23.60;82.90;;;;;;4995330;28;20105;-54
2022/08/07 02:11:44;;;;;;;2.70;2.50;;;23.60;83.10;;;;;;4995417;28;20051;-55
2022/08/07 02:14:11;;;;;;;3.28;2.20;;;23.50;83.40;;;;;;4995414;28;20046;-54
2022/08/07 02:16:38;;;;;;;2.50;2.30;;;23.50;83.40;;;;;;4995381;28;20023;-54
2022/08/07 02:19:08;;;;;;;2.72;2.50;;;23.50;83.50;;;;;;4995672;28;20022;-54
2022/08/07 02:21:38;;;;;;;2.50;2.30;;;23.60;83.50;;;;;;4990191;28;20033;-53
2022/08/07 02:24:05;;;;;;;2.35;2.15;;;23.50;83.50;;;;;;4995183;28;20101;-55
2022/08/07 02:26:34;;;;;;;2.40;2.20;;;23.60;83.80;;;;;;4994559;28;20030;-55
2022/08/07 02:29:04;;;;;;;3.15;2.67;;;23.60;83.80;;;;;;4994606;28;20135;-55
2022/08/07 02:31:32;;;;;;;2.78;2.50;;;23.60;83.80;;;;;;4995340;28;20026;-54
2022/08/07 02:34:00;;;;;;;2.80;2.53;;;23.60;83.80;;;;;;4994378;28;20038;-54
2022/08/07 02:36:27;;;;;;;3.10;2.80;;;23.60;83.90;;;;;;4995276;28;20030;-54
2022/08/07 02:38:55;;;;;;;3.30;3.00;;;23.60;83.50;;;;;;4995020;28;20034;-55
2022/08/07 02:41:22;;;;;;;2.45;2.25;;;23.60;83.40;;;;;;4994786;28;20027;-55
2022/08/07 02:43:49;;;;;;;2.55;2.35;;;23.60;83.30;;;;;;4994873;28;20030;-55
2022/08/07 02:46:18;;;;;;;2.80;2.55;;;23.70;83.30;;;;;;4995610;28;20026;-55
2022/08/07 02:48:44;;;;;;;2.50;2.30;;;23.70;83.30;;;;;;4995112;28;20030;-55
2022/08/07 02:51:13;;;;;;;2.55;2.35;;;23.70;83.40;;;;;;4994656;28;20030;-54
2022/08/07 02:53:42;;;;;;;2.78;2.58;;;23.70;83.10;;;;;;4994734;28;20470;-54
2022/08/07 02:56:13;;;;;;;2.22;2.10;;;23.70;83.10;;;;;;4994727;28;20084;-55
2022/08/07 02:58:41;;;;;;;2.50;2.30;;;23.80;83.00;;;;;;4994675;28;20421;-54
2022/08/07 03:01:08;;;;;;;2.50;2.30;;;23.80;83.00;;;;;;4994088;28;20113;-54
2022/08/07 03:03:35;;;;;;;2.75;2.50;;;23.80;82.80;;;;;;4994122;28;20025;-55
2022/08/07 03:06:03;;;;;;;2.60;2.40;;;23.80;82.70;;;;;;4992497;28;20030;-55
2022/08/07 03:08:29;;;;;;;2.13;2.03;;;23.80;82.50;;;;;;4994610;28;20030;-55
2022/08/07 03:10:56;;;;;;;2.40;2.20;;;23.80;82.50;;;;;;4994702;28;20216;-54
2022/08/07 03:13:23;;;;;;;2.55;2.35;;;23.90;82.60;;;;;;4994286;28;20458;-55
2022/08/07 03:15:49;;;;;;;2.50;2.30;;;23.90;82.60;;;;;;4994450;28;20113;-55
2022/08/07 03:18:16;;;;;;;2.40;2.20;;;23.90;82.50;;;;;;4993680;28;20532;-55
2022/08/07 03:20:43;;;;;;;2.50;2.30;;;24.00;82.60;;;;;;4993888;28;20026;-55
2022/08/07 03:23:09;;;;;;;2.47;2.28;;;24.00;82.50;;;;;;4994179;28;20030;-55
2022/08/07 03:25:39;;;;;;;2.20;2.10;;;24.10;82.50;;;;;;4994393;28;20022;-55
2022/08/07 03:28:08;;;;;;;2.83;2.63;;;24.20;82.40;;;;;;4994786;28;20045;-55
2022/08/07 03:30:36;;;;;;;2.05;1.90;;;24.30;82.40;;;;;;4994119;28;20029;-55
2022/08/07 03:33:03;;;;;;;2.53;2.20;;;24.30;82.30;;;;;;4994180;28;20028;-55
2022/08/07 03:35:29;;;;;;;2.50;2.30;;;24.40;82.10;;;;;;4992298;28;20023;-55
2022/08/07 03:38:00;;;;;;;3.20;2.45;;;24.50;82.10;;;;;;4989631;28;20445;-55
2022/08/07 03:40:27;;;;;;;2.60;2.40;;;24.60;82.00;;;;;;4992437;28;20485;-55
2022/08/07 03:42:53;;;;;;;2.10;2.00;;;24.80;82.00;;;;;;4994373;28;20490;-55
2022/08/07 03:45:21;;;;;;;2.08;1.98;;;24.90;82.10;;;;;;5003628;28;20061;-55
2022/08/07 03:47:47;;;;;;;2.42;2.22;;;25.00;82.20;;;;;;4990578;28;20019;-55
2022/08/07 03:50:13;;;;;;;2.50;2.30;;;25.10;82.30;;;;;;4988503;28;20113;-54
2022/08/07 03:52:41;;;;;;;2.40;2.20;;;25.30;82.10;;;;;;4993160;28;20509;-55
2022/08/07 03:55:07;;;;;;;2.85;2.08;;;25.40;81.80;;;;;;4987864;28;20381;-55
2022/08/07 03:57:33;;;;;;;2.72;2.53;;;25.50;82.00;;;;;;4992443;28;20018;-55
2022/08/07 03:59:59;;;;;;;2.60;2.40;;;25.60;82.30;;;;;;4992547;28;20018;-55
2022/08/07 04:02:25;;;;;;;2.28;2.08;;;25.80;83.00;;;;;;4991702;28;20073;-55
2022/08/07 04:04:51;;;;;;;3.67;2.35;;;26.10;83.50;;;;;;4983525;28;20113;-55
2022/08/07 04:07:18;;;;;;;2.88;2.67;;;26.50;83.80;;;;;;4993021;28;20105;-55
2022/08/07 04:09:48;;;;;;;3.10;2.80;;;26.90;83.80;;;;;;4993335;28;20033;-55
2022/08/07 04:12:14;;;;;;;3.22;2.92;;;27.50;83.00;;;;;;4990506;28;20030;-54
2022/08/07 04:14:40;;;;;;;3.22;2.92;;;28.10;81.90;;;;;;4993184;28;20561;-56
2022/08/07 04:17:07;;;;;;;3.92;3.30;;;28.80;80.40;;;;;;4992870;28;20364;-54
2022/08/07 04:19:33;;;;;;;4.45;2.90;;;29.60;78.80;;;;;;4993101;28;20489;-55
2022/08/07 04:21:59;;;;;;;2.90;2.70;;;30.40;77.10;;;;;;4993304;28;20053;-55
2022/08/07 04:24:25;;;;;;;3.05;2.72;;;31.10;75.40;;;;;;4992601;28;20026;-54
2022/08/07 04:26:51;;;;;;;3.03;2.72;;;31.70;73.80;;;;;;4993364;28;20034;-56
2022/08/07 04:29:17;;;;;;;3.42;2.88;;;32.00;71.60;;;;;;4990811;28;20072;-56
2022/08/07 04:31:43;;;;;;;3.63;2.70;;;32.00;70.10;;;;;;4987696;28;20042;-55
2022/08/07 04:34:09;;;;;;;3.40;3.10;;;31.80;69.50;;;;;;4988506;28;20030;-55
2022/08/07 04:36:36;;;;;;;3.03;2.72;;;31.40;69.50;;;;;;4988986;28;20034;-55
2022/08/07 04:39:03;;;;;;;3.60;3.28;;;31.10;70.20;;;;;;4990876;28;20497;-55
2022/08/07 04:41:29;;;;;;;4.60;3.20;;;30.90;70.70;;;;;;4992872;28;20030;-55
2022/08/07 04:43:55;;;;;;;3.88;2.90;;;30.80;70.40;;;;;;4994688;28;20053;-55
2022/08/07 04:46:43;;;;;;;3.85;3.30;;;30.70;70.20;;;;;;4988250;28;20478;-55
2022/08/07 04:49:27;;;;;;;3.22;2.92;;;30.60;70.80;;;;;;4992717;28;20077;-55
2022/08/07 04:52:01;;;;;;;2.95;2.60;;;30.90;71.50;;;;;;4992555;28;20394;-55
2022/08/07 04:54:32;;;;;;;2.90;2.70;;;31.50;71.20;;;;;;4993006;28;20485;-55
2022/08/07 04:57:35;;;;;;;2.60;2.40;;;32.30;70.40;;;;;;4991990;28;20022;-56
2022/08/07 05:00:05;;;;;;;2.60;2.38;;;33.10;68.70;;;;;;4992622;28;20481;-54
2022/08/07 05:02:43;;;;;;;2.47;2.28;;;33.40;67.10;;;;;;4987126;28;20034;-55
2022/08/07 05:05:18;;;;;;;2.25;2.13;;;33.60;66.50;;;;;;4992727;28;20022;-55
2022/08/07 05:08:26;;;;;;;3.38;2.22;;;33.80;66.30;;;;;;4995535;28;20061;-54
2022/08/07 05:11:03;;;;;;;2.22;2.13;;;33.90;65.10;;;;;;4981199;28;20422;-55
2022/08/07 05:13:37;;;;;;;2.10;1.90;;;34.00;65.10;;;;;;4995776;28;20047;-55
2022/08/07 05:16:08;;;;;;;2.38;2.13;;;33.90;64.60;;;;;;4992427;28;20038;-55
2022/08/07 05:18:47;;;;;;;1.88;1.77;;;33.80;64.00;;;;;;4995095;28;20422;-55
2022/08/07 05:21:17;;;;;;;2.88;2.10;;;33.60;63.80;;;;;;4991794;28;20474;-55
2022/08/07 05:23:53;;;;;;;2.08;1.90;;;33.30;63.60;;;;;;4995317;28;20110;-56
2022/08/07 05:26:21;;;;;;;2.28;1.95;;;33.00;63.40;;;;;;4995653;28;20482;-55
2022/08/07 05:28:50;;;;;;;2.45;2.25;;;32.60;63.60;;;;;;4994913;28;20117;-55
2022/08/07 05:31:19;;;;;;;2.00;1.90;;;32.20;63.90;;;;;;4991054;28;20026;-55
2022/08/07 05:33:48;;;;;;;2.10;1.98;;;31.80;64.10;;;;;;4988472;28;20486;-55
2022/08/07 05:36:15;;;;;;;2.50;2.30;;;31.60;64.20;;;;;;4982546;28;20039;-55
2022/08/07 05:38:42;;;;;;;2.17;1.98;;;31.50;64.10;;;;;;4989319;28;20030;-55
2022/08/07 05:41:09;;;;;;;2.20;2.00;;;31.30;64.00;;;;;;4993966;28;20023;-55
2022/08/07 05:43:35;;;;;;;2.17;2.08;;;31.20;64.00;;;;;;4988172;28;20018;-55
2022/08/07 05:46:01;;;;;;;2.55;2.35;;;31.00;64.00;;;;;;4987108;28;20038;-55
2022/08/07 05:48:28;;;;;;;2.38;2.17;;;30.80;64.20;;;;;;4992300;28;20034;-55
2022/08/07 05:50:56;;;;;;;2.15;1.98;;;30.60;64.30;;;;;;4994624;28;20042;-54
2022/08/07 05:53:22;;;;;;;2.55;2.35;;;30.40;64.50;;;;;;4995251;28;20061;-55
2022/08/07 05:55:49;;;;;;;2.53;2.33;;;30.10;64.70;;;;;;4995906;28;20026;-55
2022/08/07 05:58:15;;;;;;;2.30;2.10;;;30.00;65.10;;;;;;4995950;28;20018;-55
2022/08/07 06:00:45;;;;;;;2.40;2.20;;;29.80;65.40;;;;;;4989425;28;20105;-56
2022/08/07 06:03:13;;;;;;;2.40;2.20;;;29.60;65.60;;;;;;4993636;28;20497;-55
2022/08/07 06:05:40;;;;;;;2.15;2.03;;;29.50;65.80;;;;;;4993802;28;20352;-55
2022/08/07 06:08:06;;;;;;;3.58;2.30;;;29.40;66.10;;;;;;4985830;28;20022;-54
2022/08/07 06:10:32;;;;;;;2.70;2.50;;;29.30;66.30;;;;;;4993036;28;20023;-55
2022/08/07 06:13:00;;;;;;;2.83;2.60;;;29.20;66.30;;;;;;4994170;28;20025;-55
2022/08/07 06:15:28;;;;;;;3.35;2.67;;;29.10;66.50;;;;;;4990602;28;20029;-55
2022/08/07 06:17:54;;;;;;;2.70;2.50;;;29.10;66.60;;;;;;4995240;28;20054;-55
2022/08/07 06:20:21;;;;;;;2.45;2.25;;;29.00;66.70;;;;;;4995864;28;20068;-55
2022/08/07 06:22:48;;;;;;;2.40;2.20;;;29.00;66.90;;;;;;4994425;28;20076;-55
2022/08/07 06:25:14;;;;;;;2.40;2.20;;;28.90;67.00;;;;;;4995566;28;20026;-55
2022/08/07 06:27:40;;;;;;;2.55;2.35;;;28.80;67.10;;;;;;4994740;28;20056;-54
2022/08/07 06:30:06;;;;;;;3.42;2.40;;;28.70;67.20;;;;;;4995712;28;20030;-55
2022/08/07 06:32:32;;;;;;;2.65;2.45;;;28.70;67.40;;;;;;4995265;28;20039;-54
2022/08/07 06:35:01;;;;;;;2.50;2.30;;;28.70;67.40;;;;;;4993983;28;20526;-55
2022/08/07 06:37:26;;;;;;;2.70;2.40;;;28.60;67.50;;;;;;4991117;28;20034;-55
2022/08/07 06:39:52;;;;;;;2.55;2.35;;;28.60;67.70;;;;;;4992198;28;20069;-54
2022/08/07 06:42:28;;;;;;;2.78;2.58;;;28.50;68.30;;;;;;4995029;28;20045;-55
2022/08/07 06:44:56;;;;;;;2.72;2.45;;;28.50;67.80;;;;;;4993020;28;20414;-55
2022/08/07 06:47:22;;;;;;;2.80;2.60;;;28.50;68.00;;;;;;4993712;28;20030;-55
2022/08/07 06:49:48;;;;;;;2.83;2.53;;;28.40;68.20;;;;;;4995099;28;20034;-55
2022/08/07 06:52:16;;;;;;;3.10;2.80;;;28.50;68.30;;;;;;4994716;28;20077;-55
2022/08/07 06:54:43;;;;;;;2.78;2.50;;;28.40;68.20;;;;;;4995033;28;20033;-55
2022/08/07 06:57:10;;;;;;;2.78;2.58;;;28.40;68.40;;;;;;4985837;28;20113;-55
2022/08/07 06:59:39;;;;;;;2.70;2.50;;;28.40;68.40;;;;;;4994802;28;20127;-55
2022/08/07 07:02:16;;;;;;;2.60;2.40;;;28.30;68.40;;;;;;4994394;28;20113;-55
2022/08/07 07:04:46;;;;;;;2.33;2.13;;;28.30;68.30;;;;;;4981089;28;20033;-55
2022/08/07 07:07:12;;;;;;;2.78;2.58;;;28.30;68.50;;;;;;4989620;28;20545;-55
2022/08/07 07:09:45;;;;;;;2.60;2.30;;;28.30;68.80;;;;;;4992813;28;20034;-55
2022/08/07 07:12:18;;;;;;;3.05;2.85;;;28.20;68.80;;;;;;4994034;28;20030;-56
2022/08/07 07:15:05;;;;;;;2.80;2.60;;;28.30;69.10;;;;;;4992298;28;20525;-55
2022/08/07 07:17:46;;;;;;;2.72;2.53;;;28.30;69.30;;;;;;4994353;28;20038;-55
2022/08/07 07:20:17;;;;;;;2.70;2.50;;;28.20;69.30;;;;;;4989195;28;20482;-55
2022/08/07 07:22:44;;;;;;;2.67;2.47;;;28.20;69.40;;;;;;4994594;28;20029;-55
2022/08/07 07:25:11;;;;;;;2.67;2.47;;;28.20;69.50;;;;;;4989307;28;20030;-56
2022/08/07 07:27:43;;;;;;;3.03;2.72;;;28.20;69.40;;;;;;4992703;28;20061;-56
2022/08/07 07:30:11;;;;;;;2.30;2.10;;;28.20;69.40;;;;;;4984897;28;20062;-55
2022/08/07 07:32:39;;;;;;;3.20;2.20;;;28.20;69.20;;;;;;4993501;28;20073;-55
2022/08/07 07:35:07;;;;;;;2.60;2.38;;;28.20;69.00;;;;;;4993311;28;20042;-55
2022/08/07 07:37:35;;;;;;;2.22;2.10;;;28.20;68.80;;;;;;4993854;28;20045;-55
2022/08/07 07:40:09;;;;;;;4.65;2.10;;;28.20;68.80;;;;;;4993472;28;20026;-55
2022/08/07 07:42:36;;;;;;;2.40;2.20;;;28.30;68.60;;;;;;4993822;28;20101;-55
2022/08/07 07:45:04;;;;;;;2.15;2.00;;;28.30;68.50;;;;;;5003885;28;20385;-55
2022/08/07 07:47:32;;;;;;;1.88;1.77;;;28.30;68.30;;;;;;4990065;28;20548;-56
2022/08/07 07:49:59;;;;;;;2.05;1.80;;;28.30;68.40;;;;;;4993732;28;20082;-55
2022/08/07 07:52:25;;;;;;;1.80;1.70;;;28.40;68.30;;;;;;4993730;28;20034;-55
2022/08/07 07:54:53;;;;;;;2.40;2.20;;;28.40;68.20;;;;;;4993425;28;20034;-55
2022/08/07 07:57:22;;;;;;;2.13;1.98;;;28.40;68.20;;;;;;4993582;28;20029;-55
2022/08/07 07:59:49;;;;;;;2.30;2.10;;;28.40;68.20;;;;;;4993568;28;20033;-55
2022/08/07 08:02:17;;;;;;;2.33;2.13;;;28.40;68.10;;;;;;4992914;28;20109;-55
2022/08/07 08:04:44;;;;;;;2.08;1.90;;;28.50;68.10;;;;;;4992611;28;20029;-55
2022/08/07 08:07:11;;;;;;;1.90;1.80;;;28.50;67.60;;;;;;4993414;28;20482;-54
2022/08/07 08:09:39;;;;;;;1.98;1.88;;;28.50;67.60;;;;;;4990735;28;20023;-55
2022/08/07 08:12:06;;;;;;;1.73;1.63;;;28.50;67.40;;;;;;4993110;28;20053;-55
2022/08/07 08:14:32;;;;;;;2.30;2.10;;;28.50;67.50;;;;;;4992744;28;20046;-55
2022/08/07 08:17:00;;;;;;;2.15;2.00;;;28.60;67.60;;;;;;4992878;28;20042;-55
2022/08/07 08:19:28;;;;;;;2.08;1.92;;;28.60;67.50;;;;;;4992335;28;20037;-55
2022/08/07 08:27:35;;;;;;;2.30;2.10;;;28.60;66.80;;;;;;4988395;28;20141;-55
2022/08/07 08:30:03;;;;;;;1.85;1.75;;;28.60;66.60;;;;;;4993049;28;20510;-55
2022/08/07 08:32:31;;;;;;;1.55;1.45;;;28.60;66.60;;;;;;4992866;28;20386;-55
2022/08/07 08:34:58;;;;;;;1.80;1.70;;;28.60;66.50;;;;;;4991950;28;20026;-55
2022/08/07 08:37:28;;;;;;;2.10;1.90;;;28.60;66.50;;;;;;4990501;28;20030;-55
2022/08/07 08:39:55;;;;;;;1.90;1.80;;;28.60;66.40;;;;;;4991278;28;20018;-55
2022/08/07 08:42:42;;;;;;;1.80;1.70;;;28.60;66.40;;;;;;4990714;28;20077;-56
2022/08/07 08:45:20;;;;;;;2.00;1.90;;;28.60;66.50;;;;;;4988491;28;20397;-55
2022/08/07 08:48:00;;;;;;;3.30;2.10;;;28.60;66.50;;;;;;4987763;28;20045;-55
2022/08/07 08:50:39;;;;;;;2.30;2.03;;;28.60;66.60;;;;;;4992435;28;20050;-55
2022/08/07 08:53:43;;;;;;;1.95;1.58;;;28.60;66.80;;;;;;4991881;28;20038;-55
2022/08/07 08:56:18;;;;;;;2.25;2.05;;;28.60;66.90;;;;;;4969894;28;20038;-54
2022/08/07 08:59:02;;;;;;;1.52;1.42;;;28.70;67.10;;;;;;4990794;28;20026;-55
2022/08/07 09:01:52;;;;;;;1.88;1.77;;;28.70;67.10;;;;;;4992104;28;20039;-55
2022/08/07 09:04:28;;;;;;;1.95;1.83;;;28.80;67.20;;;;;;4981644;28;20034;-55
2022/08/07 09:07:26;;;;;;;1.83;1.73;;;28.90;67.10;;;;;;4985637;28;20037;-55
2022/08/07 09:09:59;;;;;;;1.80;1.70;;;29.00;66.90;;;;;;4990052;28;20453;-55
2022/08/07 09:12:37;;;;;;;1.67;1.58;;;29.00;66.60;;;;;;4990619;28;20117;-56
2022/08/07 09:15:18;;;;;;;2.13;1.70;;;29.10;66.60;;;;;;4987859;28;20522;-55
2022/08/07 09:18:14;;;;;;;2.15;2.03;;;29.10;66.30;;;;;;4991855;28;20034;-55
2022/08/07 09:21:01;;;;;;;1.75;1.65;;;29.20;66.10;;;;;;4991630;28;20034;-55
2022/08/07 09:23:41;;;;;;;1.80;1.70;;;29.20;66.00;;;;;;4981608;28;20027;-55
2022/08/07 09:26:20;;;;;;;1.70;1.60;;;29.30;66.10;;;;;;4990310;28;20030;-54
2022/08/07 09:28:52;;;;;;;1.67;1.58;;;29.30;66.00;;;;;;4991106;28;20034;-54
2022/08/07 09:31:41;;;;;;;2.53;1.73;;;29.30;66.00;;;;;;4989645;28;20029;-55
2022/08/07 09:34:15;;;;;;;1.60;1.50;;;29.40;65.90;;;;;;4987100;28;20030;-55
2022/08/07 09:37:05;;;;;;;2.15;1.95;;;29.40;65.90;;;;;;4983275;28;20031;-55
2022/08/07 09:39:53;;;;;;;1.77;1.67;;;29.40;65.90;;;;;;4978668;28;20014;-55
2022/08/07 09:42:40;;;;;;;1.63;1.52;;;29.40;65.80;;;;;;4982087;28;20026;-54
2022/08/07 09:45:27;;;;;;;1.60;1.50;;;29.40;66.00;;;;;;4993548;28;20022;-55
2022/08/07 09:48:17;;;;;;;1.60;1.50;;;29.40;65.90;;;;;;4983414;28;20041;-55
2022/08/07 09:51:04;;;;;;;1.88;1.75;;;29.30;66.00;;;;;;4991780;28;20382;-55
2022/08/07 09:53:37;;;;;;;1.95;1.75;;;29.30;66.00;;;;;;4986830;28;20487;-54
2022/08/07 09:56:32;;;;;;;2.22;2.03;;;29.20;66.10;;;;;;4995144;28;20027;-54
2022/08/07 09:59:04;;;;;;;1.95;1.70;;;29.20;66.20;;;;;;4983654;28;20490;-54
2022/08/07 10:01:51;;;;;;;1.77;1.67;;;29.20;66.30;;;;;;4995649;28;20031;-54
2022/08/07 10:04:46;;;;;;;1.67;1.58;;;29.10;66.10;;;;;;4995481;28;20058;-54
2022/08/07 10:07:31;;;;;;;1.80;1.70;;;29.00;66.00;;;;;;4987045;28;20039;-54
2022/08/07 10:10:22;;;;;;;2.17;1.95;;;29.00;66.10;;;;;;4994693;28;20506;-54
2022/08/07 10:13:01;;;;;;;1.58;1.48;;;29.00;66.00;;;;;;4993689;28;20079;-55
2022/08/07 10:15:54;;;;;;;1.55;1.45;;;28.90;66.10;;;;;;4993792;28;20153;-54
2022/08/07 10:18:22;;;;;;;1.92;1.83;;;28.90;65.90;;;;;;4993450;28;20057;-54
2022/08/07 10:21:20;;;;;;;1.75;1.65;;;28.90;66.00;;;;;;4993374;28;20034;-54
2022/08/07 10:24:12;;;;;;;1.92;1.83;;;28.80;65.70;;;;;;4989346;28;20037;-54
2022/08/07 10:27:04;;;;;;;2.47;2.28;;;28.80;65.90;;;;;;4993800;28;20029;-55
2022/08/07 10:30:05;;;;;;;2.90;2.60;;;28.80;66.40;;;;;;4995327;28;20068;-55
2022/08/07 10:32:35;;;;;;;2.60;2.40;;;28.80;66.90;;;;;;4989381;28;20037;-55
2022/08/07 10:35:23;;;;;;;2.80;2.40;;;28.70;67.30;;;;;;4989700;28;20045;-54
2022/08/07 10:38:13;;;;;;;3.28;2.85;;;28.70;67.90;;;;;;4985690;28;20452;-54
2022/08/07 10:40:43;;;;;;;3.28;2.67;;;28.70;68.20;;;;;;4993352;28;20018;-55
2022/08/07 10:43:19;;;;;;;2.60;2.40;;;28.70;68.60;;;;;;4995163;28;20393;-55
2022/08/07 10:45:54;;;;;;;2.60;2.40;;;28.60;68.70;;;;;;4995510;28;20057;-55
2022/08/07 10:48:33;;;;;;;3.83;3.20;;;28.60;68.80;;;;;;4992372;28;20026;-53
2022/08/07 10:51:32;;;;;;;3.85;2.53;;;28.60;69.10;;;;;;4991415;28;20046;-54
2022/08/07 10:54:14;;;;;;;2.75;2.55;;;28.50;69.10;;;;;;4965659;28;20129;-54
2022/08/07 10:56:55;;;;;;;3.95;2.70;;;28.50;69.10;;;;;;4994527;28;20478;-54
2022/08/07 10:59:42;;;;;;;3.50;2.90;;;28.50;69.20;;;;;;4994310;28;20031;-55
2022/08/07 11:02:42;;;;;;;3.53;3.08;;;28.40;69.20;;;;;;4982722;28;20074;-55
2022/08/07 11:05:28;;;;;;;3.20;2.90;;;28.40;69.60;;;;;;4992905;28;20068;-54
2022/08/07 11:08:00;;;;;;;3.58;3.28;;;28.30;69.40;;;;;;4988440;28;20092;-54
2022/08/07 11:10:40;;;;;;;4.38;3.20;;;28.30;69.10;;;;;;4995064;28;20027;-55
2022/08/07 11:13:09;;;;;;;;;;;28.30;69.20;;;;;;4993767;28;20633;-54
2022/08/07 11:15:38;;;;;;;4.00;3.15;;;28.20;70.40;;;;;;4994448;28;19921;-54
2022/08/07 11:18:36;;;;;;;4.43;3.72;;;28.20;69.80;;;;;;4993869;28;20041;-55
2022/08/07 11:21:10;;;;;;;4.05;3.40;;;28.20;70.20;;;;;;4941372;28;20043;-54
2022/08/07 11:24:13;;;;;;;3.72;3.42;;;28.20;69.80;;;;;;4989776;28;20065;-54
2022/08/07 11:26:52;;;;;;;4.57;3.40;;;28.20;69.90;;;;;;4982178;28;20030;-54
2022/08/07 11:29:35;;;;;;;3.10;2.88;;;28.20;69.80;;;;;;4984394;28;20497;-54
2022/08/07 11:32:16;;;;;;;3.42;3.13;;;28.20;70.10;;;;;;4992477;28;20093;-54
2022/08/07 11:35:16;;;;;;;3.58;3.28;;;28.20;69.90;;;;;;4980698;28;20402;-55
2022/08/07 11:38:12;;;;;;;3.20;2.90;;;28.30;70.20;;;;;;4975489;28;20050;-54
2022/08/07 11:41:04;;;;;;;4.13;3.30;;;28.30;70.00;;;;;;4994063;28;20061;-55
2022/08/07 11:43:57;;;;;;;4.32;3.35;;;28.30;70.00;;;;;;4989243;28;20066;-54
2022/08/07 11:46:40;;;;;;;3.45;3.15;;;28.30;69.90;;;;;;4984410;28;20381;-54
2022/08/07 11:49:28;;;;;;;3.90;3.17;;;28.40;69.40;;;;;;4993935;28;20022;-54
2022/08/07 11:52:24;;;;;;;2.80;2.60;;;28.40;68.60;;;;;;4986777;28;20030;-54
2022/08/07 11:55:18;;;;;;;2.60;2.40;;;28.40;68.60;;;;;;4993873;28;20030;-54
2022/08/07 11:57:59;;;;;;;2.60;2.40;;;28.40;67.90;;;;;;4993367;28;20109;-54
2022/08/07 12:00:37;;;;;;;2.63;2.42;;;28.40;67.90;;;;;;4993597;28;20101;-54
2022/08/07 12:03:22;;;;;;;3.00;2.70;;;28.40;67.70;;;;;;4992872;28;20478;-55
2022/08/07 12:06:06;;;;;;;2.90;2.65;;;28.50;67.30;;;;;;4988304;28;20072;-54
2022/08/07 12:08:50;;;;;;;2.80;2.60;;;28.40;67.00;;;;;;4992812;28;20481;-54
2022/08/07 12:11:23;;;;;;;3.03;2.72;;;28.50;66.80;;;;;;4993543;28;20363;-53
2022/08/07 12:14:04;;;;;;;2.75;2.55;;;28.50;66.70;;;;;;4992737;28;20136;-55
2022/08/07 12:16:44;;;;;;;2.60;2.40;;;28.50;66.60;;;;;;4993428;28;20114;-55
2022/08/07 12:19:26;;;;;;;2.13;2.03;;;28.50;66.30;;;;;;4993090;28;20164;-55
2022/08/07 12:22:17;;;;;;;2.10;2.00;;;28.50;65.90;;;;;;4993499;28;20244;-56
2022/08/07 12:27:59;;;;;;;2.40;2.20;;;28.50;65.40;;;;;;4993285;28;20525;-55
2022/08/07 12:30:31;;;;;;;2.08;1.88;;;28.50;65.60;;;;;;4993688;28;20036;-54
2022/08/07 12:33:11;;;;;;;2.22;2.03;;;28.50;64.80;;;;;;4980522;28;20026;-54
2022/08/07 12:35:38;;;;;;;2.00;1.80;;;28.50;63.30;;;;;;4993184;28;20073;-55
2022/08/07 12:38:06;;;;;;;2.67;2.30;;;28.50;63.60;;;;;;4992927;28;20038;-54
2022/08/07 12:40:35;;;;;;;1.85;1.75;;;28.50;63.50;;;;;;4991805;28;20474;-54
2022/08/07 12:43:03;;;;;;;2.67;1.90;;;28.60;63.20;;;;;;4992127;28;20027;-55
2022/08/07 12:46:03;;;;;;;2.60;1.90;;;28.60;63.00;;;;;;5003076;28;20109;-55
2022/08/07 12:48:53;;;;;;;1.85;1.75;;;28.60;62.00;;;;;;4984509;28;20506;-54
2022/08/07 12:51:22;;;;;;;;;;;28.60;62.60;;;;;;4993534;28;20033;-55
2022/08/07 12:53:54;;;;;;;2.20;2.03;;;28.60;61.00;;;;;;4992732;28;19912;-54
2022/08/07 12:56:36;;;;;;;2.67;2.10;;;28.60;62.70;;;;;;4992722;28;20548;-55
2022/08/07 12:59:04;;;;;;;2.42;2.20;;;28.60;62.30;;;;;;4984838;28;20031;-53
2022/08/07 13:02:16;;;;;;;2.40;2.20;;;28.60;62.10;;;;;;4992227;28;20425;-55
2022/08/07 13:05:00;;;;;;;2.25;1.95;;;28.60;61.60;;;;;;4958292;28;20041;-54
2022/08/07 13:08:05;;;;;;;2.33;1.80;;;28.60;62.10;;;;;;4992834;28;20041;-54
2022/08/07 13:10:49;;;;;;;2.00;1.90;;;28.60;61.80;;;;;;4983396;28;20070;-54
2022/08/07 13:13:40;;;;;;;2.15;1.77;;;28.60;62.20;;;;;;4992675;28;20494;-54
2022/08/07 13:16:23;;;;;;;2.47;1.55;;;28.60;61.90;;;;;;4992267;28;20034;-54
2022/08/07 13:18:56;;;;;;;1.58;1.48;;;28.60;62.00;;;;;;4989263;28;20044;-54
2022/08/07 13:21:30;;;;;;;1.67;1.58;;;28.60;61.90;;;;;;4988910;28;20102;-55
2022/08/07 13:24:07;;;;;;;1.60;1.50;;;28.60;62.00;;;;;;4991866;28;20385;-54
2022/08/07 13:26:40;;;;;;;1.77;1.67;;;28.50;61.60;;;;;;4984286;28;20015;-54
2022/08/07 13:29:42;;;;;;;1.40;1.40;;;28.50;61.70;;;;;;4996679;28;20462;-55